sensor_id;sensor_type;location;lat;lon;timestamp;P1;durP1;ratioP1;P2;durP2;ratioP2
10884;SDS011;5495;53.252;10.390;2022-09-27T00:02:32;5.37;;;1.80;;
10884;SDS011;5495;53.252;10.390;2022-09-27T00:04:59;3.30;;;2.00;;
10884;SDS011;5495;53.252;10.390;2022-09-27T00:07:29;4.87;;;2.07;;
10884;SDS011;5495;53.252;10.390;2022-09-27T00:10:01;3.77;;;1.90;;
10884;SDS011;5495;53.252;10.390;2022-09-27T00:12:31;1.93;;;1.50;;
10884;SDS011;5495;53.252;10.390;2022-09-27T00:15:09;5.07;;;1.90;;
10884;SDS011;5495;53.252;10.390;2022-09-27T00:17:46;4.13;;;1.90;;
10884;SDS011;5495;53.252;10.390;2022-09-27T00:20:16;3.23;;;1.80;;
10884;SDS011;5495;53.252;10.390;2022-09-27T00:22:47;2.53;;;1.63;;
10884;SDS011;5495;53.252;10.390;2022-09-27T00:25:18;4.40;;;1.80;;
10884;SDS011;5495;53.252;10.390;2022-09-27T00:27:46;4.43;;;1.60;;
10884;SDS011;5495;53.252;10.390;2022-09-27T00:30:19;3.67;;;1.97;;
10884;SDS011;5495;53.252;10.390;2022-09-27T00:32:49;5.43;;;1.63;;
10884;SDS011;5495;53.252;10.390;2022-09-27T00:35:17;3.40;;;1.93;;
10884;SDS011;5495;53.252;10.390;2022-09-27T00:37:46;2.47;;;1.63;;
10884;SDS011;5495;53.252;10.390;2022-09-27T00:43:10;2.13;;;1.80;;
10884;SDS011;5495;53.252;10.390;2022-09-27T00:45:45;2.97;;;1.90;;
10884;SDS011;5495;53.252;10.390;2022-09-27T00:48:19;6.47;;;2.00;;
10884;SDS011;5495;53.252;10.390;2022-09-27T00:50:49;6.03;;;1.83;;
10884;SDS011;5495;53.252;10.390;2022-09-27T00:53:22;4.77;;;2.00;;
10884;SDS011;5495;53.252;10.390;2022-09-27T00:55:56;4.73;;;1.97;;
10884;SDS011;5495;53.252;10.390;2022-09-27T00:58:27;3.23;;;1.87;;
10884;SDS011;5495;53.252;10.390;2022-09-27T01:01:00;3.17;;;1.93;;
10884;SDS011;5495;53.252;10.390;2022-09-27T01:03:38;2.80;;;1.97;;
10884;SDS011;5495;53.252;10.390;2022-09-27T01:06:09;4.17;;;1.87;;
10884;SDS011;5495;53.252;10.390;2022-09-27T01:08:38;2.13;;;1.87;;
10884;SDS011;5495;53.252;10.390;2022-09-27T01:11:13;2.93;;;1.70;;
10884;SDS011;5495;53.252;10.390;2022-09-27T01:13:49;2.53;;;1.70;;
10884;SDS011;5495;53.252;10.390;2022-09-27T01:16:28;4.07;;;1.87;;
10884;SDS011;5495;53.252;10.390;2022-09-27T01:19:03;7.00;;;1.93;;
10884;SDS011;5495;53.252;10.390;2022-09-27T01:21:40;3.77;;;1.70;;
10884;SDS011;5495;53.252;10.390;2022-09-27T01:24:27;2.87;;;1.63;;
10884;SDS011;5495;53.252;10.390;2022-09-27T01:30:22;6.17;;;1.87;;
10884;SDS011;5495;53.252;10.390;2022-09-27T01:33:00;2.43;;;1.83;;
10884;SDS011;5495;53.252;10.390;2022-09-27T01:35:43;2.03;;;1.60;;
10884;SDS011;5495;53.252;10.390;2022-09-27T01:38:20;1.80;;;1.47;;
10884;SDS011;5495;53.252;10.390;2022-09-27T01:40:53;5.47;;;1.87;;
10884;SDS011;5495;53.252;10.390;2022-09-27T01:43:28;3.37;;;1.77;;
10884;SDS011;5495;53.252;10.390;2022-09-27T01:46:00;4.13;;;1.80;;
10884;SDS011;5495;53.252;10.390;2022-09-27T01:48:35;2.77;;;1.70;;
10884;SDS011;5495;53.252;10.390;2022-09-27T01:51:08;1.77;;;1.60;;
10884;SDS011;5495;53.252;10.390;2022-09-27T01:53:40;2.67;;;1.80;;
10884;SDS011;5495;53.252;10.390;2022-09-27T01:56:14;3.77;;;1.90;;
10884;SDS011;5495;53.252;10.390;2022-09-27T01:58:45;3.70;;;1.83;;
10884;SDS011;5495;53.252;10.390;2022-09-27T02:01:18;4.20;;;2.27;;
10884;SDS011;5495;53.252;10.390;2022-09-27T02:03:48;2.70;;;1.77;;
10884;SDS011;5495;53.252;10.390;2022-09-27T02:06:18;3.50;;;1.90;;
10884;SDS011;5495;53.252;10.390;2022-09-27T02:08:50;2.53;;;2.00;;
10884;SDS011;5495;53.252;10.390;2022-09-27T02:11:22;2.77;;;1.80;;
10884;SDS011;5495;53.252;10.390;2022-09-27T02:13:51;2.90;;;1.90;;
10884;SDS011;5495;53.252;10.390;2022-09-27T02:16:28;4.27;;;1.93;;
10884;SDS011;5495;53.252;10.390;2022-09-27T02:19:03;4.17;;;1.90;;
10884;SDS011;5495;53.252;10.390;2022-09-27T02:21:36;2.83;;;2.00;;
10884;SDS011;5495;53.252;10.390;2022-09-27T02:24:08;2.07;;;1.70;;
10884;SDS011;5495;53.252;10.390;2022-09-27T02:26:42;2.17;;;1.60;;
10884;SDS011;5495;53.252;10.390;2022-09-27T02:29:13;3.03;;;1.83;;
10884;SDS011;5495;53.252;10.390;2022-09-27T02:31:48;2.83;;;1.93;;
10884;SDS011;5495;53.252;10.390;2022-09-27T02:34:17;4.83;;;2.10;;
10884;SDS011;5495;53.252;10.390;2022-09-27T02:36:47;3.03;;;2.00;;
10884;SDS011;5495;53.252;10.390;2022-09-27T02:39:17;6.90;;;2.10;;
10884;SDS011;5495;53.252;10.390;2022-09-27T02:41:45;4.83;;;1.97;;
10884;SDS011;5495;53.252;10.390;2022-09-27T02:44:13;1.97;;;1.77;;
10884;SDS011;5495;53.252;10.390;2022-09-27T02:46:50;3.53;;;2.00;;
10884;SDS011;5495;53.252;10.390;2022-09-27T02:52:17;3.07;;;2.00;;
10884;SDS011;5495;53.252;10.390;2022-09-27T02:54:52;5.53;;;1.93;;
10884;SDS011;5495;53.252;10.390;2022-09-27T02:57:35;5.20;;;2.03;;
10884;SDS011;5495;53.252;10.390;2022-09-27T03:00:13;2.13;;;1.90;;
10884;SDS011;5495;53.252;10.390;2022-09-27T03:02:47;2.90;;;1.93;;
10884;SDS011;5495;53.252;10.390;2022-09-27T03:05:19;2.23;;;2.00;;
10884;SDS011;5495;53.252;10.390;2022-09-27T03:07:49;2.20;;;2.00;;
10884;SDS011;5495;53.252;10.390;2022-09-27T03:10:17;3.37;;;2.20;;
10884;SDS011;5495;53.252;10.390;2022-09-27T03:12:46;2.17;;;1.97;;
10884;SDS011;5495;53.252;10.390;2022-09-27T03:15:14;2.23;;;2.03;;
10884;SDS011;5495;53.252;10.390;2022-09-27T03:17:43;2.10;;;1.90;;
10884;SDS011;5495;53.252;10.390;2022-09-27T03:20:12;2.93;;;2.27;;
10884;SDS011;5495;53.252;10.390;2022-09-27T03:22:40;2.37;;;1.97;;
10884;SDS011;5495;53.252;10.390;2022-09-27T03:25:08;3.33;;;1.93;;
10884;SDS011;5495;53.252;10.390;2022-09-27T03:27:38;3.20;;;2.10;;
10884;SDS011;5495;53.252;10.390;2022-09-27T03:30:05;4.23;;;2.37;;
10884;SDS011;5495;53.252;10.390;2022-09-27T03:32:33;3.07;;;1.93;;
10884;SDS011;5495;53.252;10.390;2022-09-27T03:35:03;2.60;;;1.90;;
10884;SDS011;5495;53.252;10.390;2022-09-27T03:37:33;2.50;;;1.60;;
10884;SDS011;5495;53.252;10.390;2022-09-27T03:40:03;5.13;;;2.20;;
10884;SDS011;5495;53.252;10.390;2022-09-27T03:42:31;2.50;;;2.00;;
10884;SDS011;5495;53.252;10.390;2022-09-27T03:44:58;3.47;;;2.20;;
10884;SDS011;5495;53.252;10.390;2022-09-27T03:47:26;3.17;;;2.20;;
10884;SDS011;5495;53.252;10.390;2022-09-27T03:49:53;4.70;;;2.33;;
10884;SDS011;5495;53.252;10.390;2022-09-27T03:52:22;5.67;;;2.27;;
10884;SDS011;5495;53.252;10.390;2022-09-27T03:54:50;3.37;;;2.03;;
10884;SDS011;5495;53.252;10.390;2022-09-27T03:57:17;6.00;;;2.37;;
10884;SDS011;5495;53.252;10.390;2022-09-27T03:59:44;2.37;;;2.17;;
10884;SDS011;5495;53.252;10.390;2022-09-27T04:02:12;3.33;;;2.20;;
10884;SDS011;5495;53.252;10.390;2022-09-27T04:04:39;3.17;;;2.10;;
10884;SDS011;5495;53.252;10.390;2022-09-27T04:07:07;2.30;;;2.10;;
10884;SDS011;5495;53.252;10.390;2022-09-27T04:09:36;2.30;;;2.10;;
10884;SDS011;5495;53.252;10.390;2022-09-27T04:12:03;5.13;;;2.50;;
10884;SDS011;5495;53.252;10.390;2022-09-27T04:14:31;4.13;;;2.40;;
10884;SDS011;5495;53.252;10.390;2022-09-27T04:16:59;4.53;;;2.30;;
10884;SDS011;5495;53.252;10.390;2022-09-27T04:19:26;2.87;;;2.17;;
10884;SDS011;5495;53.252;10.390;2022-09-27T04:21:53;2.23;;;2.03;;
10884;SDS011;5495;53.252;10.390;2022-09-27T04:24:21;4.93;;;2.10;;
10884;SDS011;5495;53.252;10.390;2022-09-27T04:26:50;2.20;;;2.00;;
10884;SDS011;5495;53.252;10.390;2022-09-27T04:29:18;2.30;;;2.10;;
10884;SDS011;5495;53.252;10.390;2022-09-27T04:31:47;2.70;;;2.13;;
10884;SDS011;5495;53.252;10.390;2022-09-27T04:34:15;3.97;;;2.27;;
10884;SDS011;5495;53.252;10.390;2022-09-27T04:36:42;5.57;;;2.97;;
10884;SDS011;5495;53.252;10.390;2022-09-27T04:39:09;2.23;;;2.03;;
10884;SDS011;5495;53.252;10.390;2022-09-27T04:41:37;2.70;;;2.30;;
10884;SDS011;5495;53.252;10.390;2022-09-27T04:44:06;3.33;;;2.23;;
10884;SDS011;5495;53.252;10.390;2022-09-27T04:46:33;3.03;;;2.37;;
10884;SDS011;5495;53.252;10.390;2022-09-27T04:49:00;4.20;;;2.60;;
10884;SDS011;5495;53.252;10.390;2022-09-27T04:51:28;4.77;;;2.90;;
10884;SDS011;5495;53.252;10.390;2022-09-27T04:53:55;2.50;;;2.30;;
10884;SDS011;5495;53.252;10.390;2022-09-27T04:56:23;2.40;;;2.20;;
10884;SDS011;5495;53.252;10.390;2022-09-27T04:58:51;3.07;;;2.77;;
10884;SDS011;5495;53.252;10.390;2022-09-27T05:01:20;3.80;;;2.77;;
10884;SDS011;5495;53.252;10.390;2022-09-27T05:03:47;3.07;;;2.77;;
10884;SDS011;5495;53.252;10.390;2022-09-27T05:06:15;2.83;;;2.63;;
10884;SDS011;5495;53.252;10.390;2022-09-27T05:08:43;4.40;;;2.80;;
10884;SDS011;5495;53.252;10.390;2022-09-27T05:11:10;5.23;;;2.80;;
10884;SDS011;5495;53.252;10.390;2022-09-27T05:13:38;3.23;;;2.90;;
10884;SDS011;5495;53.252;10.390;2022-09-27T05:16:06;7.03;;;4.23;;
10884;SDS011;5495;53.252;10.390;2022-09-27T05:18:35;4.57;;;3.73;;
10884;SDS011;5495;53.252;10.390;2022-09-27T05:21:04;4.03;;;3.63;;
10884;SDS011;5495;53.252;10.390;2022-09-27T05:23:31;4.17;;;3.77;;
10884;SDS011;5495;53.252;10.390;2022-09-27T05:26:02;5.93;;;4.10;;
10884;SDS011;5495;53.252;10.390;2022-09-27T05:28:29;4.53;;;3.80;;
10884;SDS011;5495;53.252;10.390;2022-09-27T05:30:59;4.40;;;3.87;;
10884;SDS011;5495;53.252;10.390;2022-09-27T05:33:27;7.80;;;4.17;;
10884;SDS011;5495;53.252;10.390;2022-09-27T05:35:56;3.90;;;3.40;;
10884;SDS011;5495;53.252;10.390;2022-09-27T05:38:24;4.13;;;3.73;;
10884;SDS011;5495;53.252;10.390;2022-09-27T05:40:51;4.37;;;3.97;;
10884;SDS011;5495;53.252;10.390;2022-09-27T05:43:19;5.70;;;4.07;;
10884;SDS011;5495;53.252;10.390;2022-09-27T05:45:46;4.87;;;3.83;;
10884;SDS011;5495;53.252;10.390;2022-09-27T05:48:15;3.97;;;3.57;;
10884;SDS011;5495;53.252;10.390;2022-09-27T05:50:46;5.73;;;3.90;;
10884;SDS011;5495;53.252;10.390;2022-09-27T05:53:18;5.77;;;3.50;;
10884;SDS011;5495;53.252;10.390;2022-09-27T05:55:51;6.23;;;3.80;;
10884;SDS011;5495;53.252;10.390;2022-09-27T05:58:29;4.27;;;3.50;;
10884;SDS011;5495;53.252;10.390;2022-09-27T06:00:59;6.43;;;3.43;;
10884;SDS011;5495;53.252;10.390;2022-09-27T06:03:26;3.63;;;3.30;;
10884;SDS011;5495;53.252;10.390;2022-09-27T06:05:54;3.47;;;2.90;;
10884;SDS011;5495;53.252;10.390;2022-09-27T06:08:35;4.20;;;2.80;;
10884;SDS011;5495;53.252;10.390;2022-09-27T06:11:04;5.10;;;3.13;;
10884;SDS011;5495;53.252;10.390;2022-09-27T06:13:33;4.97;;;2.73;;
10884;SDS011;5495;53.252;10.390;2022-09-27T06:16:04;4.30;;;2.70;;
10884;SDS011;5495;53.252;10.390;2022-09-27T06:18:34;3.73;;;2.40;;
10884;SDS011;5495;53.252;10.390;2022-09-27T06:21:05;2.60;;;2.40;;
10884;SDS011;5495;53.252;10.390;2022-09-27T06:23:37;8.23;;;2.97;;
10884;SDS011;5495;53.252;10.390;2022-09-27T06:26:05;3.87;;;2.57;;
10884;SDS011;5495;53.252;10.390;2022-09-27T06:28:33;3.53;;;2.80;;
10884;SDS011;5495;53.252;10.390;2022-09-27T06:31:01;2.80;;;2.50;;
10884;SDS011;5495;53.252;10.390;2022-09-27T06:33:33;2.83;;;2.23;;
10884;SDS011;5495;53.252;10.390;2022-09-27T06:36:02;7.27;;;2.60;;
10884;SDS011;5495;53.252;10.390;2022-09-27T06:38:31;3.67;;;2.70;;
10884;SDS011;5495;53.252;10.390;2022-09-27T06:41:03;4.40;;;2.77;;
10884;SDS011;5495;53.252;10.390;2022-09-27T06:43:36;7.23;;;3.03;;
10884;SDS011;5495;53.252;10.390;2022-09-27T06:46:05;8.47;;;3.47;;
10884;SDS011;5495;53.252;10.390;2022-09-27T06:48:39;4.40;;;3.00;;
10884;SDS011;5495;53.252;10.390;2022-09-27T06:51:07;4.37;;;3.30;;
10884;SDS011;5495;53.252;10.390;2022-09-27T06:53:34;4.87;;;3.80;;
10884;SDS011;5495;53.252;10.390;2022-09-27T06:56:03;6.00;;;3.80;;
10884;SDS011;5495;53.252;10.390;2022-09-27T06:58:32;6.90;;;4.20;;
10884;SDS011;5495;53.252;10.390;2022-09-27T07:01:17;6.17;;;4.30;;
10884;SDS011;5495;53.252;10.390;2022-09-27T07:03:48;4.90;;;3.80;;
10884;SDS011;5495;53.252;10.390;2022-09-27T07:06:16;6.37;;;3.73;;
10884;SDS011;5495;53.252;10.390;2022-09-27T07:08:52;5.33;;;3.87;;
10884;SDS011;5495;53.252;10.390;2022-09-27T07:11:23;5.70;;;3.80;;
10884;SDS011;5495;53.252;10.390;2022-09-27T07:13:51;4.97;;;3.80;;
10884;SDS011;5495;53.252;10.390;2022-09-27T07:16:20;4.33;;;3.40;;
10884;SDS011;5495;53.252;10.390;2022-09-27T07:18:48;5.57;;;3.43;;
10884;SDS011;5495;53.252;10.390;2022-09-27T07:21:21;5.17;;;3.33;;
10884;SDS011;5495;53.252;10.390;2022-09-27T07:23:50;4.43;;;3.33;;
10884;SDS011;5495;53.252;10.390;2022-09-27T07:26:22;5.03;;;3.50;;
10884;SDS011;5495;53.252;10.390;2022-09-27T07:28:51;3.73;;;2.93;;
10884;SDS011;5495;53.252;10.390;2022-09-27T07:31:19;4.90;;;2.80;;
10884;SDS011;5495;53.252;10.390;2022-09-27T07:33:46;3.77;;;2.70;;
10884;SDS011;5495;53.252;10.390;2022-09-27T07:36:14;3.90;;;2.53;;
10884;SDS011;5495;53.252;10.390;2022-09-27T07:38:41;4.33;;;2.67;;
10884;SDS011;5495;53.252;10.390;2022-09-27T07:41:09;4.83;;;2.80;;
10884;SDS011;5495;53.252;10.390;2022-09-27T07:43:43;2.93;;;2.63;;
10884;SDS011;5495;53.252;10.390;2022-09-27T07:46:11;2.87;;;2.50;;
10884;SDS011;5495;53.252;10.390;2022-09-27T07:48:39;3.70;;;2.63;;
10884;SDS011;5495;53.252;10.390;2022-09-27T07:51:09;7.20;;;2.70;;
10884;SDS011;5495;53.252;10.390;2022-09-27T07:53:36;4.17;;;2.43;;
10884;SDS011;5495;53.252;10.390;2022-09-27T07:56:05;2.40;;;2.20;;
10884;SDS011;5495;53.252;10.390;2022-09-27T07:58:32;4.53;;;2.50;;
10884;SDS011;5495;53.252;10.390;2022-09-27T08:01:01;2.20;;;1.93;;
10884;SDS011;5495;53.252;10.390;2022-09-27T08:03:29;7.23;;;1.93;;
10884;SDS011;5495;53.252;10.390;2022-09-27T08:06:00;3.93;;;2.00;;
10884;SDS011;5495;53.252;10.390;2022-09-27T08:08:28;2.63;;;1.70;;
10884;SDS011;5495;53.252;10.390;2022-09-27T08:10:56;4.23;;;2.20;;
10884;SDS011;5495;53.252;10.390;2022-09-27T08:13:24;2.10;;;1.60;;
10884;SDS011;5495;53.252;10.390;2022-09-27T08:15:52;2.70;;;1.30;;
10884;SDS011;5495;53.252;10.390;2022-09-27T08:18:28;1.50;;;1.40;;
10884;SDS011;5495;53.252;10.390;2022-09-27T08:20:56;2.17;;;1.53;;
10884;SDS011;5495;53.252;10.390;2022-09-27T08:23:23;1.87;;;1.60;;
10884;SDS011;5495;53.252;10.390;2022-09-27T08:25:51;6.47;;;1.80;;
10884;SDS011;5495;53.252;10.390;2022-09-27T08:28:19;5.63;;;1.57;;
10884;SDS011;5495;53.252;10.390;2022-09-27T08:30:48;5.23;;;1.50;;
10884;SDS011;5495;53.252;10.390;2022-09-27T08:33:16;4.97;;;1.23;;
10884;SDS011;5495;53.252;10.390;2022-09-27T08:35:45;1.97;;;1.20;;
10884;SDS011;5495;53.252;10.390;2022-09-27T08:38:13;1.30;;;1.10;;
10884;SDS011;5495;53.252;10.390;2022-09-27T08:40:48;1.60;;;1.00;;
10884;SDS011;5495;53.252;10.390;2022-09-27T08:43:21;1.53;;;1.03;;
10884;SDS011;5495;53.252;10.390;2022-09-27T08:46:03;1.67;;;0.97;;
10884;SDS011;5495;53.252;10.390;2022-09-27T08:48:45;1.43;;;0.90;;
10884;SDS011;5495;53.252;10.390;2022-09-27T08:51:16;2.23;;;1.10;;
10884;SDS011;5495;53.252;10.390;2022-09-27T08:53:51;3.03;;;1.17;;
10884;SDS011;5495;53.252;10.390;2022-09-27T08:56:24;1.17;;;1.07;;
10884;SDS011;5495;53.252;10.390;2022-09-27T08:58:55;2.20;;;1.10;;
10884;SDS011;5495;53.252;10.390;2022-09-27T09:01:32;1.20;;;0.83;;
10884;SDS011;5495;53.252;10.390;2022-09-27T09:04:01;1.30;;;1.00;;
10884;SDS011;5495;53.252;10.390;2022-09-27T09:06:32;3.90;;;0.90;;
10884;SDS011;5495;53.252;10.390;2022-09-27T09:09:10;1.80;;;1.33;;
10884;SDS011;5495;53.252;10.390;2022-09-27T09:11:48;0.93;;;0.83;;
10884;SDS011;5495;53.252;10.390;2022-09-27T09:14:49;1.43;;;1.00;;
10884;SDS011;5495;53.252;10.390;2022-09-27T09:17:29;4.30;;;1.30;;
10884;SDS011;5495;53.252;10.390;2022-09-27T09:20:15;3.30;;;1.00;;
10884;SDS011;5495;53.252;10.390;2022-09-27T09:22:56;1.53;;;1.10;;
10884;SDS011;5495;53.252;10.390;2022-09-27T09:25:36;1.67;;;1.17;;
10884;SDS011;5495;53.252;10.390;2022-09-27T09:28:14;1.97;;;1.40;;
10884;SDS011;5495;53.252;10.390;2022-09-27T09:30:58;4.10;;;1.27;;
10884;SDS011;5495;53.252;10.390;2022-09-27T09:33:40;34.37;;;4.37;;
10884;SDS011;5495;53.252;10.390;2022-09-27T09:36:14;1.37;;;1.03;;
10884;SDS011;5495;53.252;10.390;2022-09-27T09:38:51;2.87;;;1.10;;
10884;SDS011;5495;53.252;10.390;2022-09-27T09:41:21;3.50;;;1.33;;
10884;SDS011;5495;53.252;10.390;2022-09-27T09:43:54;2.10;;;1.13;;
10884;SDS011;5495;53.252;10.390;2022-09-27T09:46:30;1.27;;;1.10;;
10884;SDS011;5495;53.252;10.390;2022-09-27T09:49:03;1.50;;;1.40;;
10884;SDS011;5495;53.252;10.390;2022-09-27T09:51:54;1.93;;;1.30;;
10884;SDS011;5495;53.252;10.390;2022-09-27T09:54:28;1.97;;;1.50;;
10884;SDS011;5495;53.252;10.390;2022-09-27T09:57:00;1.87;;;1.63;;
10884;SDS011;5495;53.252;10.390;2022-09-27T09:59:34;2.40;;;1.83;;
10884;SDS011;5495;53.252;10.390;2022-09-27T10:02:13;7.20;;;1.93;;
10884;SDS011;5495;53.252;10.390;2022-09-27T10:04:51;1.90;;;1.73;;
10884;SDS011;5495;53.252;10.390;2022-09-27T10:07:21;1.60;;;1.50;;
10884;SDS011;5495;53.252;10.390;2022-09-27T10:09:51;2.90;;;1.60;;
10884;SDS011;5495;53.252;10.390;2022-09-27T10:12:22;7.47;;;2.00;;
10884;SDS011;5495;53.252;10.390;2022-09-27T10:14:50;4.27;;;2.00;;
10884;SDS011;5495;53.252;10.390;2022-09-27T10:17:22;2.27;;;2.07;;
10884;SDS011;5495;53.252;10.390;2022-09-27T10:19:51;2.30;;;2.10;;
10884;SDS011;5495;53.252;10.390;2022-09-27T10:22:25;2.77;;;1.80;;
10884;SDS011;5495;53.252;10.390;2022-09-27T10:24:59;5.67;;;2.50;;
10884;SDS011;5495;53.252;10.390;2022-09-27T10:27:36;2.60;;;2.20;;
10884;SDS011;5495;53.252;10.390;2022-09-27T10:30:05;2.67;;;2.20;;
10884;SDS011;5495;53.252;10.390;2022-09-27T10:32:50;2.90;;;2.40;;
10884;SDS011;5495;53.252;10.390;2022-09-27T10:35:36;3.60;;;2.47;;
10884;SDS011;5495;53.252;10.390;2022-09-27T10:41:14;2.50;;;2.07;;
10884;SDS011;5495;53.252;10.390;2022-09-27T10:44:02;3.30;;;2.27;;
10884;SDS011;5495;53.252;10.390;2022-09-27T10:47:08;2.17;;;2.03;;
10884;SDS011;5495;53.252;10.390;2022-09-27T10:49:56;3.80;;;1.90;;
10884;SDS011;5495;53.252;10.390;2022-09-27T10:55:41;2.67;;;1.47;;
10884;SDS011;5495;53.252;10.390;2022-09-27T10:58:15;1.90;;;1.70;;
10884;SDS011;5495;53.252;10.390;2022-09-27T11:00:54;1.97;;;1.50;;
10884;SDS011;5495;53.252;10.390;2022-09-27T11:06:26;2.73;;;1.40;;
10884;SDS011;5495;53.252;10.390;2022-09-27T11:09:19;2.00;;;1.40;;
10884;SDS011;5495;53.252;10.390;2022-09-27T11:11:52;1.77;;;1.60;;
10884;SDS011;5495;53.252;10.390;2022-09-27T11:15:03;2.43;;;1.70;;
10884;SDS011;5495;53.252;10.390;2022-09-27T11:18:04;2.40;;;1.40;;
10884;SDS011;5495;53.252;10.390;2022-09-27T11:20:48;1.50;;;1.40;;
10884;SDS011;5495;53.252;10.390;2022-09-27T11:23:45;3.17;;;1.67;;
10884;SDS011;5495;53.252;10.390;2022-09-27T11:26:47;3.67;;;1.20;;
10884;SDS011;5495;53.252;10.390;2022-09-27T11:29:43;2.23;;;1.70;;
10884;SDS011;5495;53.252;10.390;2022-09-27T11:32:33;2.17;;;1.27;;
10884;SDS011;5495;53.252;10.390;2022-09-27T11:38:35;2.13;;;1.50;;
10884;SDS011;5495;53.252;10.390;2022-09-27T11:42:16;3.10;;;1.43;;
10884;SDS011;5495;53.252;10.390;2022-09-27T11:44:45;4.53;;;1.83;;
10884;SDS011;5495;53.252;10.390;2022-09-27T11:47:29;2.50;;;2.17;;
10884;SDS011;5495;53.252;10.390;2022-09-27T11:50:19;2.30;;;1.70;;
10884;SDS011;5495;53.252;10.390;2022-09-27T11:53:13;1.77;;;1.53;;
10884;SDS011;5495;53.252;10.390;2022-09-27T12:00:02;3.37;;;1.50;;
10884;SDS011;5495;53.252;10.390;2022-09-27T12:02:50;1.60;;;1.50;;
10884;SDS011;5495;53.252;10.390;2022-09-27T12:05:35;3.27;;;1.60;;
10884;SDS011;5495;53.252;10.390;2022-09-27T12:08:27;1.60;;;1.50;;
10884;SDS011;5495;53.252;10.390;2022-09-27T12:11:22;1.70;;;1.60;;
10884;SDS011;5495;53.252;10.390;2022-09-27T12:14:05;3.10;;;1.93;;
10884;SDS011;5495;53.252;10.390;2022-09-27T12:16:56;2.73;;;2.07;;
10884;SDS011;5495;53.252;10.390;2022-09-27T12:19:35;1.90;;;1.63;;
10884;SDS011;5495;53.252;10.390;2022-09-27T12:22:15;1.43;;;1.33;;
10884;SDS011;5495;53.252;10.390;2022-09-27T12:24:47;1.33;;;1.23;;
10884;SDS011;5495;53.252;10.390;2022-09-27T12:27:25;1.67;;;1.20;;
10884;SDS011;5495;53.252;10.390;2022-09-27T12:30:02;1.77;;;1.60;;
10884;SDS011;5495;53.252;10.390;2022-09-27T12:32:31;1.70;;;1.30;;
10884;SDS011;5495;53.252;10.390;2022-09-27T12:35:08;1.50;;;1.40;;
10884;SDS011;5495;53.252;10.390;2022-09-27T12:37:44;2.40;;;1.70;;
10884;SDS011;5495;53.252;10.390;2022-09-27T12:40:16;4.90;;;2.03;;
10884;SDS011;5495;53.252;10.390;2022-09-27T12:43:10;2.33;;;1.80;;
10884;SDS011;5495;53.252;10.390;2022-09-27T12:46:02;2.10;;;1.90;;
10884;SDS011;5495;53.252;10.390;2022-09-27T12:49:05;2.63;;;2.00;;
10884;SDS011;5495;53.252;10.390;2022-09-27T12:51:50;2.23;;;1.97;;
10884;SDS011;5495;53.252;10.390;2022-09-27T12:57:41;2.00;;;1.83;;
10884;SDS011;5495;53.252;10.390;2022-09-27T13:00:32;2.60;;;1.47;;
10884;SDS011;5495;53.252;10.390;2022-09-27T13:06:27;3.10;;;1.40;;
10884;SDS011;5495;53.252;10.390;2022-09-27T13:09:35;1.63;;;1.53;;
10884;SDS011;5495;53.252;10.390;2022-09-27T13:12:24;3.57;;;1.63;;
10884;SDS011;5495;53.252;10.390;2022-09-27T13:15:01;2.00;;;1.30;;
10884;SDS011;5495;53.252;10.390;2022-09-27T13:17:59;1.40;;;1.30;;
10884;SDS011;5495;53.252;10.390;2022-09-27T13:26:47;2.87;;;1.30;;
10884;SDS011;5495;53.252;10.390;2022-09-27T13:29:21;1.67;;;1.30;;
10884;SDS011;5495;53.252;10.390;2022-09-27T13:34:49;6.80;;;1.60;;
10884;SDS011;5495;53.252;10.390;2022-09-27T13:37:50;2.90;;;1.50;;
10884;SDS011;5495;53.252;10.390;2022-09-27T13:40:39;2.63;;;1.40;;
10884;SDS011;5495;53.252;10.390;2022-09-27T13:43:30;2.43;;;1.60;;
10884;SDS011;5495;53.252;10.390;2022-09-27T13:46:27;2.20;;;1.40;;
10884;SDS011;5495;53.252;10.390;2022-09-27T13:49:02;1.63;;;1.27;;
10884;SDS011;5495;53.252;10.390;2022-09-27T13:51:45;3.27;;;1.43;;
10884;SDS011;5495;53.252;10.390;2022-09-27T13:54:40;2.40;;;1.40;;
10884;SDS011;5495;53.252;10.390;2022-09-27T13:57:54;1.43;;;1.33;;
10884;SDS011;5495;53.252;10.390;2022-09-27T14:00:29;1.57;;;1.47;;
10884;SDS011;5495;53.252;10.390;2022-09-27T14:03:13;2.70;;;1.60;;
10884;SDS011;5495;53.252;10.390;2022-09-27T14:05:47;1.80;;;1.57;;
10884;SDS011;5495;53.252;10.390;2022-09-27T14:08:28;2.03;;;1.60;;
10884;SDS011;5495;53.252;10.390;2022-09-27T14:11:02;3.47;;;2.00;;
10884;SDS011;5495;53.252;10.390;2022-09-27T14:13:41;1.60;;;1.50;;
10884;SDS011;5495;53.252;10.390;2022-09-27T14:16:14;1.60;;;1.50;;
10884;SDS011;5495;53.252;10.390;2022-09-27T14:25:33;4.20;;;1.40;;
10884;SDS011;5495;53.252;10.390;2022-09-27T14:28:26;4.93;;;1.37;;
10884;SDS011;5495;53.252;10.390;2022-09-27T14:31:05;3.47;;;1.40;;
10884;SDS011;5495;53.252;10.390;2022-09-27T14:33:41;2.00;;;1.17;;
10884;SDS011;5495;53.252;10.390;2022-09-27T14:36:24;4.30;;;1.40;;
10884;SDS011;5495;53.252;10.390;2022-09-27T14:39:19;3.73;;;1.40;;
10884;SDS011;5495;53.252;10.390;2022-09-27T14:42:01;2.03;;;1.20;;
10884;SDS011;5495;53.252;10.390;2022-09-27T14:44:33;4.27;;;1.40;;
10884;SDS011;5495;53.252;10.390;2022-09-27T14:47:16;2.80;;;1.57;;
10884;SDS011;5495;53.252;10.390;2022-09-27T14:50:07;3.17;;;1.60;;
10884;SDS011;5495;53.252;10.390;2022-09-27T14:52:47;2.57;;;1.53;;
10884;SDS011;5495;53.252;10.390;2022-09-27T14:55:23;1.90;;;1.50;;
10884;SDS011;5495;53.252;10.390;2022-09-27T14:58:15;2.63;;;1.73;;
10884;SDS011;5495;53.252;10.390;2022-09-27T15:03:32;2.77;;;1.67;;
10884;SDS011;5495;53.252;10.390;2022-09-27T15:06:06;5.03;;;2.00;;
10884;SDS011;5495;53.252;10.390;2022-09-27T15:08:37;6.47;;;1.70;;
10884;SDS011;5495;53.252;10.390;2022-09-27T15:11:16;5.33;;;1.90;;
10884;SDS011;5495;53.252;10.390;2022-09-27T15:13:52;5.20;;;1.67;;
10884;SDS011;5495;53.252;10.390;2022-09-27T15:16:26;3.73;;;1.63;;
10884;SDS011;5495;53.252;10.390;2022-09-27T15:18:57;6.37;;;1.70;;
10884;SDS011;5495;53.252;10.390;2022-09-27T15:21:30;2.17;;;1.60;;
10884;SDS011;5495;53.252;10.390;2022-09-27T15:24:32;2.40;;;1.50;;
10884;SDS011;5495;53.252;10.390;2022-09-27T15:27:20;5.47;;;1.80;;
10884;SDS011;5495;53.252;10.390;2022-09-27T15:29:55;4.57;;;2.10;;
10884;SDS011;5495;53.252;10.390;2022-09-27T15:32:26;2.17;;;1.37;;
10884;SDS011;5495;53.252;10.390;2022-09-27T15:34:57;6.07;;;2.10;;
10884;SDS011;5495;53.252;10.390;2022-09-27T15:37:35;3.60;;;2.17;;
10884;SDS011;5495;53.252;10.390;2022-09-27T15:43:17;4.40;;;2.10;;
10884;SDS011;5495;53.252;10.390;2022-09-27T15:45:57;4.10;;;2.43;;
10884;SDS011;5495;53.252;10.390;2022-09-27T15:49:12;3.60;;;2.43;;
10884;SDS011;5495;53.252;10.390;2022-09-27T15:51:58;6.43;;;2.33;;
10884;SDS011;5495;53.252;10.390;2022-09-27T15:54:30;2.87;;;2.20;;
10884;SDS011;5495;53.252;10.390;2022-09-27T15:59:54;4.33;;;2.30;;
10884;SDS011;5495;53.252;10.390;2022-09-27T16:02:23;4.60;;;2.23;;
10884;SDS011;5495;53.252;10.390;2022-09-27T16:04:55;4.37;;;2.23;;
10884;SDS011;5495;53.252;10.390;2022-09-27T16:07:26;3.40;;;2.10;;
10884;SDS011;5495;53.252;10.390;2022-09-27T16:09:53;3.13;;;2.10;;
10884;SDS011;5495;53.252;10.390;2022-09-27T16:12:21;3.10;;;1.93;;
10884;SDS011;5495;53.252;10.390;2022-09-27T16:14:53;5.90;;;2.27;;
10884;SDS011;5495;53.252;10.390;2022-09-27T16:17:32;9.50;;;2.17;;
10884;SDS011;5495;53.252;10.390;2022-09-27T16:20:04;3.77;;;1.90;;
10884;SDS011;5495;53.252;10.390;2022-09-27T16:22:38;3.50;;;1.87;;
10884;SDS011;5495;53.252;10.390;2022-09-27T16:25:26;5.60;;;2.30;;
10884;SDS011;5495;53.252;10.390;2022-09-27T16:28:05;2.90;;;2.00;;
10884;SDS011;5495;53.252;10.390;2022-09-27T16:30:35;7.97;;;2.10;;
10884;SDS011;5495;53.252;10.390;2022-09-27T16:33:21;7.43;;;2.30;;